createdAt,value
2018-09-13T00:01:27.949Z,25.2
2018-09-13T00:22:06.980Z,25.5
2018-09-13T00:36:52.006Z,25.7
2018-09-13T00:45:43.006Z,25.9
2018-09-13T01:00:28.068Z,26
2018-09-13T01:27:01.093Z,26.4
2018-09-13T01:35:52.078Z,26.7
2018-09-13T01:41:46.087Z,26.7
2018-09-13T01:44:43.058Z,26.8
2018-09-13T01:47:40.129Z,26.8
2018-09-13T01:50:37.131Z,26.9
2018-09-13T01:53:34.127Z,27
2018-09-13T01:56:31.097Z,27
2018-09-13T02:02:25.172Z,27.2
2018-09-13T02:05:22.130Z,27.2
2018-09-13T02:11:16.135Z,27.3
2018-09-13T02:14:13.160Z,27.3
2018-09-13T02:17:10.122Z,27.4
2018-09-13T02:20:07.159Z,27.6
2018-09-13T02:23:04.211Z,27.8
2018-09-13T02:26:01.153Z,28
2018-09-13T02:28:58.149Z,28
2018-09-13T02:31:55.110Z,27.9
2018-09-13T02:37:49.164Z,28
2018-09-13T02:40:46.185Z,28.2
2018-09-13T02:46:40.180Z,28.6
2018-09-13T02:49:37.144Z,28.8
2018-09-13T02:52:34.252Z,28.9
2018-09-13T02:55:31.222Z,28.9
2018-09-13T02:58:28.228Z,28.9
2018-09-13T03:01:25.151Z,29
2018-09-13T03:04:22.197Z,29.1
2018-09-13T03:07:19.239Z,29
2018-09-13T03:10:16.271Z,29.1
2018-09-13T03:13:13.215Z,29.2
2018-09-13T03:19:07.288Z,29.4
2018-09-13T03:22:04.234Z,29.5
2018-09-13T03:25:01.303Z,29.6
2018-09-13T03:30:55.282Z,29.9
2018-09-13T03:33:52.265Z,30
2018-09-13T03:36:49.297Z,30.1
2018-09-13T03:42:43.251Z,30.3
2018-09-13T03:45:40.238Z,30.3
2018-09-13T03:48:37.298Z,30.4
2018-09-13T03:51:34.297Z,30.5
2018-09-13T03:54:31.312Z,30.6
2018-09-13T03:57:28.285Z,30.8
2018-09-13T04:00:25.357Z,30.9
2018-09-13T04:03:22.261Z,31
2018-09-13T04:06:19.292Z,31.2
2018-09-13T04:12:13.397Z,31.4
2018-09-13T04:18:07.351Z,31.4
2018-09-13T04:21:04.327Z,31.6
2018-09-13T04:29:55.339Z,31.9
2018-09-13T04:32:52.286Z,31.9
2018-09-13T04:38:46.343Z,32
2018-09-13T04:41:43.369Z,32.1
2018-09-13T04:44:40.379Z,32.2
2018-09-13T04:50:34.411Z,31.9
2018-09-13T04:53:31.386Z,31.8
2018-09-13T04:56:28.359Z,31.8
2018-09-13T05:02:22.383Z,31.5
2018-09-13T05:05:19.325Z,31.3
2018-09-13T05:08:16.432Z,31.2
2018-09-13T05:11:13.384Z,31.2
2018-09-13T05:17:07.429Z,31.1
2018-09-13T05:20:04.418Z,31.1
2018-09-13T05:25:58.474Z,31.6
2018-09-13T05:28:55.383Z,31.6
2018-09-13T05:31:52.462Z,31.7
2018-09-13T05:34:49.430Z,31.8
2018-09-13T05:37:46.492Z,32
2018-09-13T05:40:43.443Z,32.2
2018-09-13T05:46:37.488Z,32.3
2018-09-13T05:49:34.469Z,32.4
2018-09-13T05:52:31.507Z,32.6
2018-09-13T05:55:28.464Z,32.6
2018-09-13T05:58:25.462Z,32.7
2018-09-13T06:04:19.504Z,32.7
2018-09-13T06:07:16.487Z,32.8
2018-09-13T06:13:10.484Z,33
2018-09-13T06:16:07.467Z,33
2018-09-13T06:19:04.488Z,32.8
2018-09-13T06:22:01.490Z,32.8
2018-09-13T06:24:58.555Z,32.7
2018-09-13T06:27:55.519Z,32.7
2018-09-13T06:33:49.556Z,32.6
2018-09-13T06:36:47.539Z,32.8
2018-09-13T06:42:40.525Z,33.2
2018-09-13T06:45:37.524Z,33.3
2018-09-13T06:48:34.598Z,33.4
2018-09-13T06:51:31.499Z,33.4
2018-09-13T06:54:28.672Z,33.4
2018-09-13T06:57:25.557Z,33.5
2018-09-13T07:00:22.555Z,33.6
2018-09-13T07:06:16.614Z,33.8
2018-09-13T07:09:13.721Z,33.8
2018-09-13T07:12:10.645Z,33.9
2018-09-13T07:15:07.622Z,33.9
2018-09-13T07:18:04.652Z,34
2018-09-13T07:23:58.615Z,34
2018-09-13T07:26:55.620Z,34
2018-09-13T07:29:52.660Z,33.9
2018-09-13T07:32:49.572Z,33.9
2018-09-13T07:35:46.638Z,33.8
2018-09-13T07:38:43.675Z,33.7
2018-09-13T07:41:40.723Z,33.6
2018-09-13T07:47:34.672Z,33.3
2018-09-13T07:53:28.649Z,33.2
2018-09-13T07:56:25.640Z,33.2
2018-09-13T07:59:22.642Z,33
2018-09-13T08:02:19.606Z,33
2018-09-13T08:05:16.652Z,32.8
2018-09-13T08:08:13.684Z,32.8
2018-09-13T08:11:10.712Z,32.6
2018-09-13T08:17:04.733Z,32.5
2018-09-13T08:20:01.725Z,32.4
2018-09-13T08:22:58.759Z,32.4
2018-09-13T08:25:55.655Z,32.4
2018-09-13T08:28:52.865Z,32.3
2018-09-13T08:34:46.880Z,32.2
2018-09-13T08:37:43.678Z,32.2
2018-09-13T08:40:40.735Z,32.1
2018-09-13T08:43:37.764Z,32
2018-09-13T08:46:34.771Z,32
2018-09-13T08:49:31.737Z,31.9
2018-09-13T08:52:28.730Z,31.8
2018-09-13T08:55:25.714Z,31.7
2018-09-13T08:58:22.865Z,31.7
2018-09-13T09:01:19.772Z,31.6
2018-09-13T09:07:13.829Z,31.5
2018-09-13T09:16:04.777Z,31.4
2018-09-13T09:21:58.790Z,31.4
2018-09-13T09:24:55.751Z,31.4
2018-09-13T09:27:53.845Z,31.3
2018-09-13T09:30:49.820Z,31.2
2018-09-13T09:33:46.853Z,31.2
2018-09-13T09:39:40.946Z,31.3
2018-09-13T09:42:37.837Z,31.3
2018-09-13T09:45:34.832Z,31.2
2018-09-13T11:22:55.973Z,30
2018-09-13T11:31:46.986Z,29.9
2018-09-13T11:52:25.998Z,29.8
2018-09-13T12:01:17.099Z,29.8
2018-09-13T12:07:11.100Z,29.8
2018-09-13T12:10:08.053Z,29.7
2018-09-13T12:16:02.063Z,29.7
2018-09-13T12:36:41.112Z,29.6
2018-09-13T12:48:29.169Z,29.6
2018-09-13T13:15:02.217Z,29.5
2018-09-13T13:20:56.252Z,29.4
2018-09-13T13:26:50.247Z,29.4
2018-09-13T13:50:26.188Z,29.4
2018-09-13T14:05:11.275Z,29.4
2018-09-13T14:08:08.209Z,29.4
2018-09-13T14:16:59.209Z,29.3
2018-09-13T14:19:56.195Z,29.3
2018-09-13T14:25:50.233Z,29.3
2018-09-13T14:28:47.209Z,29.3
2018-09-13T14:31:44.295Z,29.3
2018-09-13T14:37:38.270Z,29.3
2018-09-13T14:40:35.204Z,29.4
2018-09-13T15:01:14.281Z,29.3
2018-09-13T15:10:05.312Z,29.3
2018-09-13T15:15:59.352Z,29.2
2018-09-13T15:30:44.365Z,29.2
2018-09-13T15:36:38.377Z,29.2
2018-09-13T15:48:26.400Z,29
2018-09-13T15:51:23.386Z,28.8
2018-09-13T15:57:17.368Z,28.7
2018-09-13T16:03:11.371Z,28.7
2018-09-13T16:09:05.448Z,28.7
2018-09-13T16:17:56.398Z,28.7
2018-09-13T16:23:50.446Z,28.7
2018-09-13T16:29:44.448Z,28.6
2018-09-13T16:32:41.441Z,28.6
2018-09-13T16:35:38.466Z,28.6
2018-09-13T16:38:35.427Z,28.6
2018-09-13T16:41:32.458Z,28.6
2018-09-13T16:44:29.477Z,28.6
2018-09-13T16:50:23.442Z,28.6
2018-09-13T16:53:20.455Z,28.6
2018-09-13T16:59:14.438Z,28.6
2018-09-13T17:08:05.458Z,28.6
2018-09-13T17:16:56.520Z,28.6
2018-09-13T17:22:50.533Z,28.6
2018-09-13T17:25:47.492Z,28.6
2018-09-13T17:31:41.624Z,28.6
2018-09-13T17:46:26.519Z,28
2018-09-13T17:52:20.587Z,27.6
2018-09-13T17:55:17.471Z,27.5
2018-09-13T17:58:14.585Z,27.5
2018-09-13T18:01:11.583Z,27.5
2018-09-13T18:07:05.804Z,27.3
2018-09-13T18:10:02.587Z,27.3
2018-09-13T18:12:59.605Z,27.2
2018-09-13T18:18:53.636Z,27.1
2018-09-13T18:21:50.550Z,27.2
2018-09-13T18:24:47.669Z,27.1
2018-09-13T18:27:44.534Z,27.1
2018-09-13T18:30:41.815Z,27.1
2018-09-13T18:33:38.547Z,27.1
2018-09-13T18:36:35.581Z,27
2018-09-13T18:39:32.529Z,27
2018-09-13T18:42:29.603Z,26.9
2018-09-13T18:45:26.571Z,26.9
2018-09-13T18:48:23.590Z,26.9
2018-09-13T18:54:17.719Z,26.8
2018-09-13T19:00:11.643Z,26.8
2018-09-13T19:03:08.609Z,26.8
2018-09-13T19:06:05.640Z,26.8
2018-09-13T19:09:02.598Z,26.8
2018-09-13T19:11:59.644Z,26.8
2018-09-13T19:14:56.603Z,26.8
2018-09-13T19:17:53.703Z,26.7
2018-09-13T19:20:50.683Z,26.7
2018-09-13T19:23:47.704Z,26.7
2018-09-13T19:26:44.682Z,26.8
2018-09-13T19:29:41.932Z,26.7
2018-09-13T19:32:38.728Z,26.7
2018-09-13T19:35:35.775Z,26.7
2018-09-13T19:38:32.727Z,26.7
2018-09-13T19:41:29.758Z,26.7
2018-09-13T19:44:26.955Z,26.7
2018-09-13T19:47:23.697Z,26.7
2018-09-13T19:50:20.758Z,26.7
2018-09-13T19:53:17.747Z,26.7
2018-09-13T19:59:11.758Z,26.6
2018-09-13T20:02:08.685Z,26.6
2018-09-13T20:05:05.899Z,26.6
2018-09-13T20:10:59.776Z,26.6
2018-09-13T20:13:56.750Z,26.5
2018-09-13T20:16:53.794Z,26.5
2018-09-13T20:19:50.770Z,26.5
2018-09-13T20:22:47.791Z,26.5
2018-09-13T20:25:44.757Z,26.5
2018-09-13T20:28:41.931Z,26.5
2018-09-13T20:31:38.721Z,26.4
2018-09-13T20:34:35.807Z,26.4
2018-09-13T20:40:29.975Z,26.5
2018-09-13T20:43:26.734Z,26.4
2018-09-13T20:49:20.805Z,26.5
2018-09-13T20:52:17.752Z,26.5
2018-09-13T20:55:14.786Z,26.5
2018-09-13T20:58:11.754Z,26.5
2018-09-13T21:01:08.845Z,26.5
2018-09-13T21:04:05.784Z,26.5
2018-09-13T21:07:02.846Z,26.5
2018-09-13T21:12:56.810Z,26.5
2018-09-13T21:15:53.767Z,26.5
2018-09-13T21:18:50.791Z,26.5
2018-09-13T21:21:47.796Z,26.5
2018-09-13T21:24:44.826Z,26.5
2018-09-13T21:27:41.768Z,26.4
2018-09-13T21:30:38.872Z,26.4
2018-09-13T21:33:35.807Z,26.4
2018-09-13T21:36:32.823Z,26.4
2018-09-13T21:39:29.781Z,26.4
2018-09-13T21:42:26.883Z,26.4
2018-09-13T21:45:23.891Z,26.4
2018-09-13T21:48:20.899Z,26.4
2018-09-13T21:51:17.874Z,26.4
2018-09-13T21:54:14.936Z,26.4
2018-09-13T21:57:11.887Z,26.4
2018-09-13T22:00:08.972Z,26.4
2018-09-13T22:06:03.121Z,26.4
2018-09-13T22:08:59.899Z,26.4
2018-09-13T22:11:56.894Z,26.4
2018-09-13T22:20:47.897Z,26.4
2018-09-13T22:23:44.904Z,26.4
2018-09-13T22:35:32.973Z,26.3
2018-09-13T22:38:29.930Z,26.3
2018-09-13T22:41:26.947Z,26.3
2018-09-13T22:44:23.865Z,26.3
2018-09-13T22:47:20.937Z,26.3
2018-09-13T22:50:17.910Z,26.3
2018-09-13T22:53:15.004Z,26.3
2018-09-13T22:56:11.947Z,26.3
2018-09-13T22:59:08.998Z,26.2
2018-09-13T23:02:05.960Z,26.2
2018-09-13T23:05:02.962Z,26.2
2018-09-13T23:13:54.109Z,26.2
2018-09-13T23:19:48.026Z,26.2
2018-09-13T23:22:44.934Z,26.2
2018-09-13T23:25:42.333Z,26.2
2018-09-13T23:28:38.948Z,26.2
2018-09-13T23:31:36.043Z,26.2
2018-09-13T23:34:32.999Z,26.2
2018-09-13T23:37:30.089Z,26.2
2018-09-13T23:40:27.236Z,26.3
2018-09-13T23:43:24.054Z,26.2
2018-09-13T23:46:20.988Z,26.2
2018-09-13T23:52:15.204Z,26.2
2018-09-13T23:55:11.978Z,26.2
2018-09-13T23:58:09.019Z,26.3
